Etusivu
METAR-TAF:

METAR-TAF

Lentoasemat :

Wharton, Texas, Yhdysvallat

Leveyspiiri: 29-15-15N, Pituuspiiri: 096-09-15W, korkeus merenpinnasta: 31 m

Tämänhetkinen sää

Tämä raportti tehtiin 27 minuuttia sitten, kello 23.55 UTC
Tuuli 10 kn idästä/kaakosta puuskistuen 14 kn:hen
Lämpötila 21°C
Kosteus 100%
Ilmanpaine 1016 hPa
Näkyvyys: 16.1 km
Hajanaisia pilviä 1800 ft:n korkeudessa
Hajonneita pilviä 2600 ft:n korkeudessa
Pilvistä 8000 ft:n korkeudessa

METAR: KARM 072355Z AUTO 12010G14KT 10SM SCT018 BKN026 OVC080 21/21 A2999 RMK AO2 T02110211 10246 20211 TSNO

Aika: 18:22 (00:22 UTC)


TAF: puuttuu

Säähavainnot ja -ennusteet yli 4000 lentoasemalta (METAR- ja TAF-raportit).

Käytössä olevat sääasemat on merkitty karttaan keltaisilla ja punaisilla pisteillä.

Aseta hiiri pisteen päälle nähdäksesi sääaseman nimen.

Klikkaa sitten nähdäksesi säähavainnot ja -ennusteet.

Kartan vaihtaminen: klikkaa mustalla rastilla varustettuja vihreitä pisteitä, niin voit zoomata sisään; viivalla varustettua vihreää pistettä, niin voit zoomata ulos tai vihreitä nuolia, niin pääset viereisille kartoille.


METAR-TAF: